createdAt,value
2018-06-15T00:02:03.392Z,17.80
2018-06-15T00:04:30.968Z,17.80
2018-06-15T00:06:58.673Z,17.80
2018-06-15T00:09:26.270Z,17.80
2018-06-15T00:11:53.878Z,17.80
2018-06-15T00:14:21.482Z,17.80
2018-06-15T00:16:49.053Z,17.70
2018-06-15T00:19:16.642Z,17.70
2018-06-15T00:21:44.194Z,17.70
2018-06-15T00:24:11.842Z,17.60
2018-06-15T00:26:39.819Z,17.60
2018-06-15T00:29:07.352Z,17.50
2018-06-15T00:31:34.897Z,17.50
2018-06-15T00:34:02.525Z,17.50
2018-06-15T00:36:30.109Z,17.50
2018-06-15T00:38:57.664Z,17.40
2018-06-15T00:41:25.485Z,17.40
2018-06-15T00:43:53.134Z,17.40
2018-06-15T00:46:20.719Z,17.40
2018-06-15T00:48:48.289Z,17.40
2018-06-15T00:51:15.857Z,17.40
2018-06-15T00:53:43.386Z,17.40
2018-06-15T00:56:11.828Z,17.30
2018-06-15T00:58:39.380Z,17.30
2018-06-15T01:01:06.944Z,17.20
2018-06-15T01:03:34.565Z,17.20
2018-06-15T01:06:02.130Z,17.20
2018-06-15T01:08:29.787Z,17.20
2018-06-15T01:10:57.497Z,17.20
2018-06-15T01:13:25.095Z,17.20
2018-06-15T01:15:52.667Z,17.20
2018-06-15T01:18:20.292Z,17.20
2018-06-15T01:20:47.857Z,17.20
2018-06-15T01:23:15.445Z,17.20
2018-06-15T01:25:42.981Z,17.20
2018-06-15T01:28:10.575Z,17.20
2018-06-15T01:30:41.270Z,17.20
2018-06-15T01:33:08.908Z,17.20
2018-06-15T01:35:36.426Z,17.20
2018-06-15T01:38:04.329Z,17.20
2018-06-15T01:40:31.950Z,17.20
2018-06-15T01:42:59.571Z,17.20
2018-06-15T01:45:27.111Z,17.20
2018-06-15T01:47:54.686Z,17.10
2018-06-15T01:50:22.352Z,17.20
2018-06-15T01:52:50.124Z,17.20
2018-06-15T01:55:17.684Z,17.20
2018-06-15T01:57:45.636Z,17.10
2018-06-15T02:00:13.214Z,17.20
2018-06-15T02:02:41.150Z,17.00
2018-06-15T02:05:08.670Z,17.00
2018-06-15T02:07:36.206Z,17.00
2018-06-15T02:10:04.041Z,17.00
2018-06-15T02:12:31.576Z,16.90
2018-06-15T02:14:59.181Z,17.00
2018-06-15T02:17:26.750Z,17.00
2018-06-15T02:19:54.497Z,17.10
2018-06-15T02:22:22.046Z,17.00
2018-06-15T02:24:50.222Z,17.00
2018-06-15T02:27:17.783Z,17.00
2018-06-15T02:29:45.355Z,17.00
2018-06-15T02:32:12.954Z,16.90
2018-06-15T02:34:40.481Z,16.90
2018-06-15T02:37:08.139Z,16.90
2018-06-15T02:39:35.720Z,17.00
2018-06-15T02:42:03.413Z,16.90
2018-06-15T02:44:30.992Z,17.00
2018-06-15T02:46:58.597Z,17.00
2018-06-15T02:49:26.093Z,17.00
2018-06-15T02:51:53.681Z,17.00
2018-06-15T02:54:21.297Z,17.00
2018-06-15T02:56:48.981Z,17.00
2018-06-15T02:59:16.499Z,17.00
2018-06-15T03:01:44.250Z,17.00
2018-06-15T03:04:11.790Z,17.10
2018-06-15T03:06:39.336Z,17.10
2018-06-15T03:09:07.283Z,17.10
2018-06-15T03:11:34.870Z,17.10
2018-06-15T03:14:02.407Z,17.00
2018-06-15T03:16:30.045Z,17.00
2018-06-15T03:18:57.620Z,17.00
2018-06-15T03:21:25.238Z,17.00
2018-06-15T03:23:52.856Z,17.00
2018-06-15T03:26:20.405Z,16.90
2018-06-15T03:28:47.968Z,16.90
2018-06-15T03:31:15.577Z,17.00
2018-06-15T03:33:43.153Z,17.00
2018-06-15T03:36:10.696Z,17.00
2018-06-15T03:38:38.304Z,17.10
2018-06-15T03:41:05.987Z,17.10
2018-06-15T03:43:33.501Z,17.00
2018-06-15T03:46:01.179Z,17.10
2018-06-15T03:48:28.751Z,17.10
2018-06-15T03:50:56.307Z,17.10
2018-06-15T03:53:23.948Z,17.10
2018-06-15T03:55:51.493Z,17.20
2018-06-15T03:58:19.121Z,17.20
2018-06-15T04:00:46.767Z,17.20
2018-06-15T04:03:14.346Z,17.20
2018-06-15T04:05:42.031Z,17.20
2018-06-15T04:08:09.633Z,17.20
2018-06-15T04:10:37.253Z,17.20
2018-06-15T04:13:04.877Z,17.20
2018-06-15T04:15:32.665Z,17.20
2018-06-15T04:18:04.891Z,17.20
2018-06-15T04:20:32.968Z,17.20
2018-06-15T04:23:01.074Z,17.20
2018-06-15T04:25:28.978Z,17.30
2018-06-15T04:27:56.639Z,17.30
2018-06-15T04:30:24.162Z,17.40
2018-06-15T04:32:51.810Z,17.40
2018-06-15T04:35:19.570Z,17.50
2018-06-15T04:37:47.506Z,17.50
2018-06-15T04:40:15.084Z,17.50
2018-06-15T04:42:43.096Z,17.60
2018-06-15T04:45:10.632Z,17.60
2018-06-15T04:47:38.162Z,17.70
2018-06-15T04:50:06.480Z,17.80
2018-06-15T04:52:34.062Z,17.80
2018-06-15T04:55:01.626Z,17.90
2018-06-15T04:57:30.398Z,18.00
2018-06-15T04:59:58.280Z,18.10
2018-06-15T05:02:26.083Z,18.20
2018-06-15T05:04:53.681Z,18.20
2018-06-15T05:07:21.289Z,18.30
2018-06-15T05:09:48.829Z,18.40
2018-06-15T05:12:16.850Z,18.50
2018-06-15T05:14:44.561Z,18.50
2018-06-15T05:17:12.304Z,18.60
2018-06-15T05:19:39.885Z,18.60
2018-06-15T05:22:07.757Z,18.70
2018-06-15T05:24:35.309Z,18.80
2018-06-15T05:27:03.162Z,18.80
2018-06-15T05:29:30.713Z,18.90
2018-06-15T05:31:58.333Z,18.90
2018-06-15T05:34:25.931Z,19.00
2018-06-15T05:36:53.500Z,19.00
2018-06-15T05:39:21.137Z,19.00
2018-06-15T05:41:48.785Z,19.00
2018-06-15T05:44:16.335Z,19.10
2018-06-15T05:46:43.857Z,19.20
2018-06-15T05:49:11.481Z,19.20
2018-06-15T05:51:39.051Z,19.20
2018-06-15T05:54:06.657Z,19.30
2018-06-15T05:56:34.339Z,19.40
2018-06-15T05:59:01.939Z,19.50
2018-06-15T06:01:29.641Z,19.60
2018-06-15T06:06:24.873Z,19.80
2018-06-15T06:11:20.031Z,20.10
2018-06-15T06:13:47.589Z,20.10
2018-06-15T06:16:15.145Z,20.10
2018-06-15T06:18:42.738Z,20.20
2018-06-15T06:21:10.315Z,20.20
2018-06-15T06:23:37.885Z,20.30
2018-06-15T06:26:06.444Z,20.30
2018-06-15T06:28:33.995Z,20.30
2018-06-15T06:31:01.706Z,20.20
2018-06-15T06:33:29.278Z,20.30
2018-06-15T06:35:56.841Z,20.30
2018-06-15T06:38:24.401Z,20.30
2018-06-15T06:40:52.001Z,20.40
2018-06-15T06:43:19.592Z,20.50
2018-06-15T06:45:47.488Z,20.50
2018-06-15T06:48:15.384Z,20.60
2018-06-15T06:50:42.900Z,20.70
2018-06-15T06:53:10.438Z,20.80
2018-06-15T06:55:38.051Z,20.90
2018-06-15T06:58:05.586Z,21.10
2018-06-15T07:00:33.162Z,21.10
2018-06-15T07:03:00.839Z,21.30
2018-06-15T07:05:28.778Z,21.40
2018-06-15T07:07:56.364Z,21.60
2018-06-15T07:10:23.988Z,21.70
2018-06-15T07:12:51.566Z,21.80
2018-06-15T07:15:19.096Z,22.10
2018-06-15T07:17:46.674Z,22.20
2018-06-15T07:20:14.260Z,22.30
2018-06-15T07:22:41.837Z,22.60
2018-06-15T07:25:09.400Z,22.60
2018-06-15T07:27:36.961Z,22.60
2018-06-15T07:30:04.555Z,22.70
2018-06-15T07:32:32.146Z,22.60
2018-06-15T07:35:00.379Z,22.50
2018-06-15T07:37:27.979Z,22.30
2018-06-15T07:39:55.890Z,22.30
2018-06-15T07:42:24.498Z,22.30
2018-06-15T07:44:53.727Z,22.20
2018-06-15T07:47:21.569Z,22.00
2018-06-15T07:49:49.221Z,21.90
2018-06-15T07:52:16.817Z,21.80
2018-06-15T07:54:44.465Z,21.80
2018-06-15T07:59:46.448Z,21.60
2018-06-15T08:02:13.972Z,21.60
2018-06-15T08:04:41.538Z,21.80
2018-06-15T08:07:10.056Z,22.10
2018-06-15T08:09:37.735Z,22.50
2018-06-15T08:12:05.312Z,23.00
2018-06-15T08:14:32.902Z,23.40
2018-06-15T08:17:00.440Z,23.80
2018-06-15T08:19:27.989Z,24.10
2018-06-15T08:21:55.610Z,24.40
2018-06-15T08:24:23.154Z,24.60
2018-06-15T08:26:50.765Z,24.80
2018-06-15T08:29:18.382Z,24.90
2018-06-15T08:31:45.918Z,25.00
2018-06-15T08:34:13.510Z,25.20
2018-06-15T08:36:41.080Z,25.30
2018-06-15T08:39:10.046Z,25.40
2018-06-15T08:41:37.700Z,25.50
2018-06-15T08:44:05.312Z,25.80
2018-06-15T08:46:32.858Z,25.90
2018-06-15T08:49:00.484Z,25.90
2018-06-15T08:51:28.082Z,25.70
2018-06-15T08:53:55.592Z,25.60
2018-06-15T08:56:23.183Z,25.50
2018-06-15T08:58:50.878Z,25.60
2018-06-15T09:01:18.478Z,25.70
2018-06-15T09:03:46.082Z,25.70
2018-06-15T09:06:13.675Z,25.70
2018-06-15T09:08:41.238Z,25.90
2018-06-15T09:11:08.776Z,26.00
2018-06-15T09:13:36.360Z,26.20
2018-06-15T09:16:03.950Z,26.50
2018-06-15T09:18:31.756Z,26.60
2018-06-15T09:21:02.705Z,26.60
2018-06-15T09:23:31.591Z,26.60
2018-06-15T09:25:59.132Z,26.70
2018-06-15T09:28:26.757Z,26.80
2018-06-15T09:30:54.336Z,26.90
2018-06-15T09:33:21.929Z,26.80
2018-06-15T09:35:50.315Z,26.80
2018-06-15T09:38:17.918Z,26.90
2018-06-15T09:40:45.493Z,27.10
2018-06-15T09:43:13.133Z,27.00
2018-06-15T09:45:40.718Z,27.00
2018-06-15T09:48:08.265Z,27.10
2018-06-15T09:50:35.829Z,27.10
2018-06-15T09:53:03.403Z,26.90
2018-06-15T09:55:30.948Z,26.90
2018-06-15T09:57:58.562Z,27.00
2018-06-15T10:00:31.633Z,27.00
2018-06-15T10:02:59.218Z,26.90
2018-06-15T10:05:26.812Z,26.80
2018-06-15T10:07:54.522Z,26.80
2018-06-15T10:10:22.142Z,26.70
2018-06-15T10:12:49.803Z,26.70
2018-06-15T10:15:17.392Z,26.50
2018-06-15T10:17:44.962Z,26.50
2018-06-15T10:20:12.487Z,26.40
2018-06-15T10:22:40.018Z,26.30
2018-06-15T10:25:07.757Z,26.20
2018-06-15T10:27:35.467Z,26.00
2018-06-15T10:30:03.121Z,25.90
2018-06-15T10:32:30.744Z,25.70
2018-06-15T10:34:58.389Z,25.70
2018-06-15T10:37:26.026Z,25.70
2018-06-15T10:39:53.600Z,25.70
2018-06-15T10:42:21.141Z,25.70
2018-06-15T10:44:48.741Z,25.70
2018-06-15T10:47:16.363Z,25.60
2018-06-15T10:49:43.939Z,25.60
2018-06-15T10:52:12.227Z,25.50
2018-06-15T10:54:39.790Z,25.40
2018-06-15T10:57:07.533Z,25.10
2018-06-15T10:59:35.073Z,24.90
2018-06-15T11:04:30.663Z,24.60
2018-06-15T11:06:58.203Z,24.50
2018-06-15T11:09:26.101Z,24.30
2018-06-15T11:11:53.661Z,24.10
2018-06-15T11:14:21.223Z,24.00
2018-06-15T11:16:48.864Z,23.90
2018-06-15T11:19:16.431Z,23.80
2018-06-15T11:21:44.025Z,23.70
2018-06-15T11:24:11.618Z,23.60
2018-06-15T11:26:39.261Z,23.50
2018-06-15T11:29:06.821Z,23.40
2018-06-15T11:34:01.911Z,23.30
2018-06-15T11:36:29.531Z,23.30
2018-06-15T11:38:57.095Z,23.30
2018-06-15T11:41:24.792Z,23.30
2018-06-15T11:43:52.433Z,23.40
2018-06-15T11:46:20.025Z,23.40
2018-06-15T11:48:47.593Z,23.40
2018-06-15T11:51:15.189Z,23.40
2018-06-15T11:53:42.754Z,23.50
2018-06-15T11:56:10.327Z,23.50
2018-06-15T11:58:37.897Z,23.60
2018-06-15T12:01:05.491Z,23.70
2018-06-15T12:03:33.045Z,23.80
2018-06-15T12:06:00.759Z,23.80
2018-06-15T12:08:28.819Z,24.00
2018-06-15T12:10:56.433Z,24.20
2018-06-15T12:13:24.113Z,24.50
2018-06-15T12:15:51.757Z,24.70
2018-06-15T12:20:46.838Z,25.40
2018-06-15T12:25:41.896Z,25.90
2018-06-15T12:28:09.433Z,26.10
2018-06-15T12:30:37.353Z,26.30
2018-06-15T12:33:05.030Z,26.40
2018-06-15T12:35:32.558Z,26.50
2018-06-15T12:38:00.639Z,26.60
2018-06-15T12:40:28.277Z,26.70
2018-06-15T12:42:55.821Z,26.80
2018-06-15T12:45:23.630Z,26.80
2018-06-15T12:47:51.196Z,26.90
2018-06-15T12:50:18.822Z,27.00
2018-06-15T12:52:46.395Z,27.10
2018-06-15T12:55:14.308Z,27.20
2018-06-15T12:57:41.879Z,27.10
2018-06-15T13:00:09.564Z,27.10
2018-06-15T13:02:37.140Z,27.00
2018-06-15T13:05:04.901Z,27.00
2018-06-15T13:07:32.490Z,27.00
2018-06-15T13:10:00.682Z,26.90
2018-06-15T13:12:28.734Z,26.90
2018-06-15T13:14:56.398Z,26.80
2018-06-15T13:17:24.030Z,26.80
2018-06-15T13:19:51.605Z,26.80
2018-06-15T13:22:19.186Z,26.60
2018-06-15T13:24:46.730Z,26.60
2018-06-15T13:27:14.856Z,26.50
2018-06-15T13:29:42.446Z,26.50
2018-06-15T13:32:10.030Z,26.50
2018-06-15T13:34:37.613Z,26.50
2018-06-15T13:37:06.614Z,26.50
2018-06-15T13:39:34.188Z,26.60
2018-06-15T13:42:01.861Z,26.60
2018-06-15T13:44:29.688Z,26.70
2018-06-15T13:46:57.360Z,26.60
2018-06-15T13:49:56.197Z,26.70
2018-06-15T13:52:23.801Z,26.70
2018-06-15T13:54:51.641Z,26.70
2018-06-15T13:57:19.267Z,26.50
2018-06-15T13:59:46.819Z,26.40
2018-06-15T14:02:14.353Z,26.30
2018-06-15T14:04:42.081Z,26.30
2018-06-15T14:07:09.707Z,26.20
2018-06-15T14:09:37.325Z,26.20
2018-06-15T14:12:05.001Z,26.30
2018-06-15T14:14:32.991Z,26.30
2018-06-15T14:17:00.593Z,26.30
2018-06-15T14:19:28.238Z,26.40
2018-06-15T14:21:55.785Z,26.30
2018-06-15T14:24:23.344Z,26.30
2018-06-15T14:26:50.981Z,26.30
2018-06-15T14:29:18.625Z,26.10
2018-06-15T14:31:46.193Z,25.90
2018-06-15T14:34:13.929Z,25.80
2018-06-15T14:36:41.531Z,25.50
2018-06-15T14:39:10.214Z,25.40
2018-06-15T14:41:37.865Z,25.30
2018-06-15T14:44:05.559Z,25.20
2018-06-15T14:46:33.214Z,25.00
2018-06-15T14:49:00.880Z,24.90
2018-06-15T14:51:28.715Z,24.80
2018-06-15T14:53:56.301Z,24.80
2018-06-15T14:56:23.896Z,24.70
2018-06-15T14:58:51.830Z,24.50
2018-06-15T15:01:19.416Z,24.40
2018-06-15T15:03:47.126Z,24.30
2018-06-15T15:06:14.645Z,24.20
2018-06-15T15:08:42.266Z,24.10
2018-06-15T15:11:09.842Z,24.10
2018-06-15T15:13:37.396Z,24.10
2018-06-15T15:16:04.991Z,24.00
2018-06-15T15:21:00.197Z,23.70
2018-06-15T15:23:27.779Z,23.70
2018-06-15T15:25:55.432Z,23.60
2018-06-15T15:28:23.050Z,23.60
2018-06-15T15:33:18.292Z,23.50
2018-06-15T15:35:45.902Z,23.50
2018-06-15T15:38:13.527Z,23.40
2018-06-15T15:40:41.122Z,23.30
2018-06-15T15:43:09.026Z,23.30
2018-06-15T15:45:36.690Z,23.30
2018-06-15T15:48:04.432Z,23.30
2018-06-15T15:50:32.108Z,23.30
2018-06-15T15:52:59.786Z,23.30
2018-06-15T15:55:27.406Z,23.30
2018-06-15T16:00:22.724Z,23.30
2018-06-15T16:05:17.828Z,23.20
2018-06-15T16:07:45.404Z,23.10
2018-06-15T16:12:40.716Z,22.90
2018-06-15T16:15:08.245Z,22.90
2018-06-15T16:17:35.939Z,22.80
2018-06-15T16:20:03.669Z,22.80
2018-06-15T16:22:31.375Z,22.80
2018-06-15T16:24:59.110Z,22.80
2018-06-15T16:27:26.901Z,22.70
2018-06-15T16:29:54.471Z,22.60
2018-06-15T16:32:22.093Z,22.60
2018-06-15T16:34:49.674Z,22.70
2018-06-15T16:37:17.465Z,22.70
2018-06-15T16:39:45.012Z,22.70
2018-06-15T16:44:40.226Z,22.70
2018-06-15T16:47:07.839Z,22.70
2018-06-15T16:49:35.410Z,22.70
2018-06-15T16:52:03.140Z,22.60
2018-06-15T16:54:30.812Z,22.60
2018-06-15T16:56:58.552Z,22.60
2018-06-15T16:59:26.096Z,22.70
2018-06-15T17:01:53.752Z,22.70
2018-06-15T17:04:21.350Z,22.70
2018-06-15T17:06:48.893Z,22.80
2018-06-15T17:09:17.775Z,22.80
2018-06-15T17:11:45.471Z,22.80
2018-06-15T17:14:13.056Z,22.80
2018-06-15T17:16:40.721Z,22.90
2018-06-15T17:19:08.297Z,22.90
2018-06-15T17:21:35.869Z,22.90
2018-06-15T17:24:03.509Z,23.00
2018-06-15T17:26:31.113Z,23.00
2018-06-15T17:31:26.310Z,23.00
2018-06-15T17:33:53.980Z,22.90
2018-06-15T17:38:49.131Z,22.90
2018-06-15T17:41:16.761Z,22.90
2018-06-15T17:43:44.379Z,22.90
2018-06-15T17:46:12.065Z,22.90
2018-06-15T17:48:39.641Z,22.80
2018-06-15T17:51:07.252Z,22.80
2018-06-15T17:53:34.949Z,22.80
2018-06-15T17:56:02.609Z,22.80
2018-06-15T17:58:30.279Z,22.80
2018-06-15T18:00:58.077Z,22.80
2018-06-15T18:03:25.691Z,22.80
2018-06-15T18:05:53.281Z,22.80
2018-06-15T18:08:20.919Z,22.70
2018-06-15T18:10:48.588Z,22.70
2018-06-15T18:13:16.161Z,22.60
2018-06-15T18:18:11.268Z,22.70
2018-06-15T18:20:38.821Z,22.60
2018-06-15T18:23:06.417Z,22.60
2018-06-15T18:25:34.000Z,22.60
2018-06-15T18:28:01.563Z,22.50
2018-06-15T18:30:29.193Z,22.50
2018-06-15T18:32:56.853Z,22.50
2018-06-15T18:35:24.398Z,22.50
2018-06-15T18:37:52.048Z,22.50
2018-06-15T18:40:19.596Z,22.40
2018-06-15T18:42:47.185Z,22.30
2018-06-15T18:45:14.810Z,22.20
2018-06-15T18:47:42.402Z,22.20
2018-06-15T18:50:09.980Z,22.20
2018-06-15T18:52:38.403Z,22.10
2018-06-15T18:55:06.049Z,22.10
2018-06-15T18:57:33.670Z,22.00
2018-06-15T19:00:01.564Z,22.00
2018-06-15T19:02:29.232Z,21.90
2018-06-15T19:04:56.916Z,21.90
2018-06-15T19:07:24.554Z,21.80
2018-06-15T19:09:52.141Z,21.80
2018-06-15T19:12:19.750Z,21.80
2018-06-15T19:14:47.370Z,21.70
2018-06-15T19:17:15.024Z,21.70
2018-06-15T19:19:42.550Z,21.60
2018-06-15T19:24:37.820Z,21.50
2018-06-15T19:27:05.542Z,21.50
2018-06-15T19:29:33.188Z,21.50
2018-06-15T19:34:28.323Z,21.40
2018-06-15T19:36:56.027Z,21.40
2018-06-15T19:39:23.650Z,21.40
2018-06-15T19:41:51.289Z,21.40
2018-06-15T19:44:18.890Z,21.40
2018-06-15T19:46:46.461Z,21.30
2018-06-15T19:49:14.028Z,21.30
2018-06-15T19:51:41.650Z,21.30
2018-06-15T19:54:09.207Z,21.20
2018-06-15T19:56:36.852Z,21.20
2018-06-15T19:59:04.779Z,21.20
2018-06-15T20:01:32.542Z,21.10
2018-06-15T20:04:00.104Z,21.10
2018-06-15T20:06:28.016Z,21.00
2018-06-15T20:08:55.610Z,21.00
2018-06-15T20:11:23.178Z,21.00
2018-06-15T20:13:50.799Z,20.90
2018-06-15T20:18:45.968Z,20.80
2018-06-15T20:21:13.552Z,20.80
2018-06-15T20:23:41.287Z,20.80
2018-06-15T20:26:08.958Z,20.70
2018-06-15T20:28:36.660Z,20.70
2018-06-15T20:33:31.750Z,20.60
2018-06-15T20:35:59.376Z,20.60
2018-06-15T20:38:27.779Z,20.50
2018-06-15T20:40:55.383Z,20.50
2018-06-15T20:43:23.049Z,20.50
2018-06-15T20:45:50.622Z,20.40
2018-06-15T20:48:18.212Z,20.40
2018-06-15T20:50:45.810Z,20.40
2018-06-15T20:53:13.385Z,20.40
2018-06-15T20:55:40.955Z,20.40
2018-06-15T21:00:36.200Z,20.40
2018-06-15T21:03:03.725Z,20.40
2018-06-15T21:05:31.306Z,20.40
2018-06-15T21:07:59.120Z,20.30
2018-06-15T21:10:26.702Z,20.30
2018-06-15T21:12:54.297Z,20.30
2018-06-15T21:15:21.798Z,20.20
2018-06-15T21:17:49.447Z,20.20
2018-06-15T21:20:17.051Z,20.10
2018-06-15T21:22:44.873Z,20.10
2018-06-15T21:25:12.520Z,20.10
2018-06-15T21:27:40.220Z,20.10
2018-06-15T21:30:07.797Z,20.00
2018-06-15T21:32:35.333Z,20.00
2018-06-15T21:35:03.165Z,20.00
2018-06-15T21:37:30.706Z,19.90
2018-06-15T21:42:25.808Z,19.80
2018-06-15T21:44:53.488Z,19.80
2018-06-15T21:47:21.060Z,19.70
2018-06-15T21:49:48.669Z,19.60
2018-06-15T21:52:16.273Z,19.50
2018-06-15T21:54:43.807Z,19.50
2018-06-15T21:57:11.389Z,19.40
2018-06-15T21:59:38.994Z,19.40
2018-06-15T22:02:06.633Z,19.30
2018-06-15T22:04:34.325Z,19.30
2018-06-15T22:07:01.931Z,19.20
2018-06-15T22:09:29.493Z,19.20
2018-06-15T22:11:57.159Z,19.10
2018-06-15T22:14:24.860Z,19.10
2018-06-15T22:16:52.907Z,19.00
2018-06-15T22:19:21.909Z,19.00
2018-06-15T22:21:50.703Z,19.00
2018-06-15T22:24:18.293Z,18.90
2018-06-15T22:26:45.938Z,18.90
2018-06-15T22:29:13.473Z,18.90
2018-06-15T22:31:41.046Z,18.90
2018-06-15T22:34:08.741Z,18.90
2018-06-15T22:36:36.357Z,18.80
2018-06-15T22:39:08.077Z,18.80
2018-06-15T22:41:35.654Z,18.70
2018-06-15T22:44:03.222Z,18.70
2018-06-15T22:46:30.871Z,18.60
2018-06-15T22:48:58.426Z,18.50
2018-06-15T22:51:26.113Z,18.50
2018-06-15T22:53:53.704Z,18.40
2018-06-15T22:56:21.284Z,18.40
2018-06-15T22:58:48.871Z,18.40
2018-06-15T23:01:16.506Z,18.40
2018-06-15T23:03:44.054Z,18.30
2018-06-15T23:06:11.596Z,18.30
2018-06-15T23:08:39.230Z,18.20
2018-06-15T23:11:06.910Z,18.20
2018-06-15T23:13:34.564Z,18.10
2018-06-15T23:16:02.174Z,18.00
2018-06-15T23:18:29.740Z,18.00
2018-06-15T23:20:57.282Z,18.00
2018-06-15T23:23:25.422Z,18.10
2018-06-15T23:25:52.974Z,18.00
2018-06-15T23:28:20.547Z,18.00
2018-06-15T23:30:48.948Z,18.00
2018-06-15T23:33:16.504Z,18.00
2018-06-15T23:35:44.025Z,18.00
2018-06-15T23:38:11.586Z,18.00
2018-06-15T23:40:39.133Z,18.00
2018-06-15T23:43:07.016Z,18.00
2018-06-15T23:45:34.617Z,17.90
2018-06-15T23:48:02.205Z,17.90
2018-06-15T23:50:29.790Z,17.90
2018-06-15T23:52:57.408Z,17.90
2018-06-15T23:55:24.995Z,17.90
2018-06-15T23:57:52.676Z,17.90
